createdAt,value
2022-09-14T00:01:27.528Z,100.00
2022-09-14T00:03:57.882Z,100.00
2022-09-14T00:06:26.350Z,100.00
2022-09-14T00:08:55.640Z,100.00
2022-09-14T00:11:25.167Z,100.00
2022-09-14T00:13:54.762Z,100.00
2022-09-14T00:16:25.177Z,100.00
2022-09-14T00:18:54.014Z,100.00
2022-09-14T00:21:22.548Z,100.00
2022-09-14T00:23:50.397Z,100.00
2022-09-14T00:26:20.593Z,100.00
2022-09-14T00:28:50.693Z,100.00
2022-09-14T00:31:21.038Z,100.00
2022-09-14T00:33:50.430Z,100.00
2022-09-14T00:36:20.987Z,100.00
2022-09-14T00:38:49.222Z,100.00
2022-09-14T00:41:19.762Z,100.00
2022-09-14T00:43:59.408Z,100.00
2022-09-14T00:46:30.158Z,100.00
2022-09-14T00:49:00.858Z,100.00
2022-09-14T00:51:30.189Z,100.00
2022-09-14T00:53:58.288Z,100.00
2022-09-14T00:56:26.703Z,100.00
2022-09-14T00:58:56.325Z,100.00
2022-09-14T01:01:24.099Z,100.00
2022-09-14T01:03:53.197Z,100.00
2022-09-14T01:06:35.393Z,100.00
2022-09-14T01:09:23.057Z,100.00
2022-09-14T01:12:07.048Z,100.00
2022-09-14T01:14:43.305Z,100.00
2022-09-14T01:17:20.818Z,100.00
2022-09-14T01:20:16.077Z,100.00
2022-09-14T01:22:48.596Z,100.00
2022-09-14T01:25:29.193Z,100.00
2022-09-14T01:28:02.783Z,100.00
2022-09-14T01:30:35.472Z,100.00
2022-09-14T01:33:10.749Z,100.00
2022-09-14T01:35:44.363Z,100.00
2022-09-14T01:38:18.460Z,100.00
2022-09-14T01:40:48.186Z,100.00
2022-09-14T01:43:21.567Z,100.00
2022-09-14T01:45:52.839Z,100.00
2022-09-14T01:48:25.811Z,100.00
2022-09-14T01:50:57.194Z,100.00
2022-09-14T01:53:30.754Z,100.00
2022-09-14T01:56:02.703Z,100.00
2022-09-14T01:58:37.696Z,100.00
2022-09-14T02:01:08.926Z,100.00
2022-09-14T02:03:41.992Z,100.00
2022-09-14T02:06:17.563Z,100.00
2022-09-14T02:08:45.274Z,100.00
2022-09-14T02:11:13.054Z,100.00
2022-09-14T02:13:42.123Z,100.00
2022-09-14T02:16:09.882Z,100.00
2022-09-14T02:18:38.686Z,100.00
2022-09-14T02:21:11.514Z,100.00
2022-09-14T02:23:39.306Z,100.00
2022-09-14T02:26:07.263Z,100.00
2022-09-14T02:28:35.191Z,100.00
2022-09-14T02:31:18.091Z,100.00
2022-09-14T02:33:53.291Z,100.00
2022-09-14T02:36:26.433Z,100.00
2022-09-14T02:39:00.241Z,100.00
2022-09-14T02:41:39.743Z,100.00
2022-09-14T02:44:19.911Z,100.00
2022-09-14T02:46:56.480Z,100.00
2022-09-14T02:49:30.748Z,100.00
2022-09-14T02:52:06.790Z,100.00
2022-09-14T02:54:38.894Z,100.00
2022-09-14T02:57:06.633Z,100.00
2022-09-14T02:59:34.704Z,100.00
2022-09-14T03:02:03.906Z,100.00
2022-09-14T03:04:31.641Z,100.00
2022-09-14T03:06:59.345Z,100.00
2022-09-14T03:09:27.007Z,100.00
2022-09-14T03:11:54.743Z,100.00
2022-09-14T03:14:22.399Z,100.00
2022-09-14T03:16:50.100Z,100.00
2022-09-14T03:19:19.123Z,100.00
2022-09-14T03:21:46.757Z,100.00
2022-09-14T03:24:14.409Z,100.00
2022-09-14T03:26:42.064Z,100.00
2022-09-14T03:29:09.747Z,100.00
2022-09-14T03:31:37.871Z,100.00
2022-09-14T03:34:05.591Z,100.00
2022-09-14T03:36:34.567Z,100.00
2022-09-14T03:39:02.719Z,100.00
2022-09-14T03:41:30.817Z,100.00
2022-09-14T03:43:58.477Z,100.00
2022-09-14T03:46:26.954Z,100.00
2022-09-14T03:48:56.115Z,100.00
2022-09-14T03:51:24.349Z,100.00
2022-09-14T03:53:53.518Z,100.00
2022-09-14T03:56:22.590Z,100.00
2022-09-14T03:58:51.341Z,100.00
2022-09-14T04:01:20.849Z,100.00
2022-09-14T04:03:49.291Z,100.00
2022-09-14T04:06:17.842Z,100.00
2022-09-14T04:08:47.161Z,100.00
2022-09-14T04:11:18.154Z,100.00
2022-09-14T04:13:46.694Z,100.00
2022-09-14T04:16:15.471Z,100.00
2022-09-14T04:18:43.226Z,100.00
2022-09-14T04:21:14.498Z,100.00
2022-09-14T04:24:10.093Z,100.00
2022-09-14T04:26:33.030Z,100.00
2022-09-14T04:29:00.671Z,100.00
2022-09-14T04:31:28.644Z,100.00
2022-09-14T04:33:57.456Z,100.00
2022-09-14T04:36:30.999Z,100.00
2022-09-14T04:39:00.836Z,100.00
2022-09-14T04:41:29.986Z,100.00
2022-09-14T04:43:59.805Z,100.00
2022-09-14T04:46:30.175Z,100.00
2022-09-14T04:48:58.059Z,100.00
2022-09-14T04:51:28.079Z,100.00
2022-09-14T04:53:57.894Z,100.00
2022-09-14T04:56:26.783Z,100.00
2022-09-14T04:58:56.743Z,100.00
2022-09-14T05:01:28.220Z,100.00
2022-09-14T05:03:58.716Z,100.00
2022-09-14T05:06:30.039Z,100.00
2022-09-14T05:08:59.148Z,100.00
2022-09-14T05:11:28.550Z,100.00
2022-09-14T05:13:56.456Z,100.00
2022-09-14T05:16:27.718Z,100.00
2022-09-14T05:18:58.522Z,100.00
2022-09-14T05:21:26.478Z,100.00
2022-09-14T05:23:55.749Z,100.00
2022-09-14T05:26:24.444Z,100.00
2022-09-14T05:28:53.532Z,100.00
2022-09-14T05:31:22.022Z,100.00
2022-09-14T05:33:53.740Z,100.00
2022-09-14T05:36:21.589Z,100.00
2022-09-14T05:38:49.704Z,100.00
2022-09-14T05:41:17.765Z,100.00
2022-09-14T05:43:46.047Z,100.00
2022-09-14T05:46:15.141Z,100.00
2022-09-14T05:48:43.179Z,100.00
2022-09-14T05:51:14.769Z,100.00
2022-09-14T05:53:42.876Z,100.00
2022-09-14T05:56:12.559Z,100.00
2022-09-14T05:58:41.202Z,100.00
2022-09-14T06:01:11.170Z,100.00
2022-09-14T06:03:39.448Z,100.00
2022-09-14T06:06:08.642Z,100.00
2022-09-14T06:08:38.346Z,100.00
2022-09-14T06:11:07.421Z,100.00
2022-09-14T06:13:37.884Z,100.00
2022-09-14T06:16:06.686Z,100.00
2022-09-14T06:18:35.559Z,100.00
2022-09-14T06:21:04.476Z,100.00
2022-09-14T06:23:33.460Z,100.00
2022-09-14T06:26:03.720Z,100.00
2022-09-14T06:28:32.351Z,100.00
2022-09-14T06:31:00.279Z,100.00
2022-09-14T06:33:28.085Z,100.00
2022-09-14T06:35:56.897Z,100.00
2022-09-14T06:38:24.878Z,100.00
2022-09-14T06:40:54.129Z,100.00
2022-09-14T06:43:23.371Z,100.00
2022-09-14T06:45:58.921Z,100.00
2022-09-14T06:48:27.384Z,100.00
2022-09-14T06:50:55.142Z,100.00
2022-09-14T06:53:22.798Z,100.00
2022-09-14T06:55:50.667Z,100.00
2022-09-14T06:58:18.372Z,100.00
2022-09-14T07:00:47.628Z,100.00
2022-09-14T07:03:15.383Z,100.00
2022-09-14T07:05:43.047Z,100.00
2022-09-14T07:08:13.319Z,100.00
2022-09-14T07:10:43.070Z,100.00
2022-09-14T07:13:10.837Z,100.00
2022-09-14T07:15:38.519Z,100.00
2022-09-14T07:18:07.609Z,100.00
2022-09-14T07:20:35.368Z,100.00
2022-09-14T07:23:03.117Z,100.00
2022-09-14T07:25:30.933Z,100.00
2022-09-14T07:28:00.684Z,100.00
2022-09-14T07:30:28.625Z,100.00
2022-09-14T07:32:56.522Z,100.00
2022-09-14T07:35:25.811Z,100.00
2022-09-14T07:37:53.539Z,100.00
2022-09-14T07:40:22.975Z,100.00
2022-09-14T07:42:55.558Z,100.00
2022-09-14T07:45:25.376Z,100.00
2022-09-14T07:47:53.031Z,100.00
2022-09-14T07:50:20.749Z,100.00
2022-09-14T07:52:52.214Z,100.00
2022-09-14T07:55:20.318Z,100.00
2022-09-14T07:57:56.075Z,100.00
2022-09-14T08:00:25.578Z,100.00
2022-09-14T08:02:55.132Z,100.00
2022-09-14T08:05:22.986Z,100.00
2022-09-14T08:07:55.770Z,100.00
2022-09-14T08:10:24.213Z,100.00
2022-09-14T08:12:53.009Z,100.00
2022-09-14T08:15:24.146Z,100.00
2022-09-14T08:17:55.431Z,100.00
2022-09-14T08:20:23.401Z,100.00
2022-09-14T08:22:51.017Z,100.00
2022-09-14T08:25:20.060Z,100.00
2022-09-14T08:27:47.738Z,100.00
2022-09-14T08:30:15.391Z,100.00
2022-09-14T08:32:42.992Z,100.00
2022-09-14T08:35:10.673Z,100.00
2022-09-14T08:37:38.326Z,100.00
2022-09-14T08:40:06.659Z,100.00
2022-09-14T08:42:41.041Z,100.00
2022-09-14T08:45:12.979Z,100.00
2022-09-14T08:52:06.337Z,100.00
2022-09-14T08:54:34.014Z,100.00
2022-09-14T08:57:10.434Z,100.00
2022-09-14T08:59:48.938Z,100.00
2022-09-14T09:02:43.324Z,100.00
2022-09-14T09:05:26.515Z,100.00
2022-09-14T09:07:59.646Z,100.00
2022-09-14T09:10:28.484Z,100.00
2022-09-14T09:12:59.155Z,100.00
2022-09-14T09:15:32.019Z,100.00
2022-09-14T09:18:03.187Z,100.00
2022-09-14T09:20:33.569Z,100.00
2022-09-14T09:23:12.730Z,100.00
2022-09-14T09:25:51.502Z,100.00
2022-09-14T09:28:21.115Z,100.00
2022-09-14T09:30:50.388Z,100.00
2022-09-14T09:33:22.223Z,100.00
2022-09-14T09:36:03.037Z,100.00
2022-09-14T09:38:31.811Z,100.00
2022-09-14T09:41:07.520Z,100.00
2022-09-14T09:43:48.839Z,100.00
2022-09-14T09:46:19.054Z,100.00
2022-09-14T09:48:48.316Z,100.00
2022-09-14T09:51:22.153Z,100.00
2022-09-14T09:53:55.187Z,99.60
2022-09-14T09:56:26.369Z,100.00
2022-09-14T09:58:54.518Z,99.92
2022-09-14T10:01:28.797Z,100.00
2022-09-14T10:04:06.810Z,100.00
2022-09-14T10:06:42.668Z,100.00
2022-09-14T10:09:15.204Z,97.35
2022-09-14T10:11:43.339Z,98.86
2022-09-14T10:14:27.592Z,96.79
2022-09-14T10:17:06.250Z,98.21
2022-09-14T10:19:34.343Z,99.77
2022-09-14T10:22:19.241Z,96.51
2022-09-14T10:24:58.427Z,92.48
2022-09-14T10:27:43.063Z,94.31
2022-09-14T10:30:15.510Z,98.45
2022-09-14T10:32:50.019Z,100.00
2022-09-14T10:35:18.621Z,97.82
2022-09-14T10:37:58.093Z,96.58
2022-09-14T10:40:36.506Z,97.39
2022-09-14T10:43:29.773Z,98.77
2022-09-14T10:46:03.112Z,95.69
2022-09-14T10:49:01.067Z,95.32
2022-09-14T10:51:50.230Z,100.00
2022-09-14T10:54:37.152Z,100.00
2022-09-14T10:57:14.458Z,100.00
2022-09-14T10:59:53.405Z,100.00
2022-09-14T11:02:49.379Z,100.00
2022-09-14T11:05:23.675Z,99.28
2022-09-14T11:08:07.646Z,98.78
2022-09-14T11:10:46.377Z,99.08
2022-09-14T11:13:32.408Z,100.00
2022-09-14T11:16:10.946Z,96.85
2022-09-14T11:18:46.480Z,98.52
2022-09-14T11:21:24.495Z,99.07
2022-09-14T11:24:28.540Z,95.34
2022-09-14T11:27:04.053Z,93.21
2022-09-14T11:29:35.990Z,92.38
2022-09-14T11:32:21.434Z,95.09
2022-09-14T11:34:56.153Z,95.56
2022-09-14T11:37:33.708Z,93.88
2022-09-14T11:40:08.068Z,93.99
2022-09-14T11:42:46.729Z,94.81
2022-09-14T11:45:23.419Z,93.92
2022-09-14T11:47:58.937Z,94.16
2022-09-14T11:50:28.646Z,99.28
2022-09-14T11:53:04.788Z,94.78
2022-09-14T11:55:33.134Z,94.28
2022-09-14T11:58:02.411Z,96.42
2022-09-14T12:01:05.022Z,96.77
2022-09-14T12:04:04.812Z,97.78
2022-09-14T12:06:59.739Z,95.79
2022-09-14T12:10:15.584Z,93.52
2022-09-14T12:12:44.930Z,90.63
2022-09-14T12:15:33.908Z,97.22
2022-09-14T12:18:22.531Z,95.37
2022-09-14T12:21:00.681Z,94.94
2022-09-14T12:23:31.920Z,95.24
2022-09-14T12:26:08.388Z,96.18
2022-09-14T12:28:48.234Z,89.03
2022-09-14T12:31:39.390Z,94.40
2022-09-14T12:34:17.146Z,97.19
2022-09-14T12:37:00.175Z,94.84
2022-09-14T12:39:30.464Z,96.39
2022-09-14T12:42:25.389Z,93.40
2022-09-14T12:44:53.979Z,93.39
2022-09-14T12:47:58.194Z,93.12
2022-09-14T12:50:32.789Z,93.45
2022-09-14T12:53:19.867Z,89.07
2022-09-14T12:56:03.028Z,88.78
2022-09-14T12:59:10.024Z,92.08
2022-09-14T13:01:48.471Z,91.76
2022-09-14T13:04:27.084Z,93.73
2022-09-14T13:06:56.968Z,95.49
2022-09-14T13:09:26.985Z,91.95
2022-09-14T13:11:57.867Z,94.86
2022-09-14T13:14:30.653Z,93.47
2022-09-14T13:17:01.003Z,93.48
2022-09-14T13:19:30.824Z,92.66
2022-09-14T13:22:00.382Z,92.58
2022-09-14T13:24:32.512Z,97.25
2022-09-14T13:27:02.995Z,96.29
2022-09-14T13:29:32.358Z,96.90
2022-09-14T13:32:03.999Z,96.96
2022-09-14T13:34:35.969Z,100.00
2022-09-14T13:37:04.162Z,100.00
2022-09-14T13:39:35.543Z,98.27
2022-09-14T13:42:04.410Z,98.61
2022-09-14T13:44:37.020Z,98.40
2022-09-14T13:47:06.454Z,98.58
2022-09-14T13:49:36.144Z,98.45
2022-09-14T13:52:57.136Z,99.36
2022-09-14T13:55:22.483Z,100.00
2022-09-14T13:58:07.675Z,100.00
2022-09-14T14:00:49.248Z,100.00
2022-09-14T14:03:26.123Z,100.00
2022-09-14T14:05:54.259Z,100.00
2022-09-14T14:08:29.545Z,100.00
2022-09-14T14:10:58.231Z,100.00
2022-09-14T14:13:26.642Z,100.00
2022-09-14T14:16:14.556Z,100.00
2022-09-14T14:18:44.889Z,100.00
2022-09-14T14:21:24.659Z,100.00
2022-09-14T14:24:20.433Z,100.00
2022-09-14T14:26:49.860Z,100.00
2022-09-14T14:29:17.957Z,100.00
2022-09-14T14:31:47.322Z,100.00
2022-09-14T14:34:20.702Z,100.00
2022-09-14T14:36:50.046Z,100.00
2022-09-14T14:39:20.567Z,100.00
2022-09-14T14:41:49.009Z,100.00
2022-09-14T14:44:19.192Z,97.98
2022-09-14T14:46:48.892Z,95.60
2022-09-14T14:49:18.411Z,94.45
2022-09-14T14:51:46.036Z,94.48
2022-09-14T14:54:16.268Z,93.42
2022-09-14T14:56:44.516Z,92.41
2022-09-14T14:59:18.033Z,91.03
2022-09-14T15:01:46.118Z,91.24
2022-09-14T15:04:15.534Z,93.79
2022-09-14T15:06:43.246Z,96.02
2022-09-14T15:09:15.885Z,95.54
2022-09-14T15:11:43.657Z,92.49
2022-09-14T15:14:13.182Z,94.75
2022-09-14T15:16:41.036Z,95.82
2022-09-14T15:19:10.284Z,97.03
2022-09-14T15:21:40.071Z,97.73
2022-09-14T15:24:08.265Z,99.13
2022-09-14T15:26:36.575Z,100.00
2022-09-14T15:29:04.881Z,100.00
2022-09-14T15:31:33.263Z,100.00
2022-09-14T15:34:00.981Z,100.00
2022-09-14T15:36:47.655Z,100.00
2022-09-14T15:39:15.937Z,100.00
2022-09-14T15:41:43.962Z,100.00
2022-09-14T15:44:12.181Z,100.00
2022-09-14T15:46:41.190Z,100.00
2022-09-14T15:49:12.536Z,100.00
2022-09-14T15:51:45.279Z,100.00
2022-09-14T15:54:13.620Z,100.00
2022-09-14T15:56:41.989Z,100.00
2022-09-14T15:59:09.886Z,100.00
2022-09-14T16:01:37.955Z,100.00
2022-09-14T16:04:11.623Z,100.00
2022-09-14T16:06:40.627Z,100.00
2022-09-14T16:09:11.376Z,100.00
2022-09-14T16:11:40.081Z,100.00
2022-09-14T16:14:09.473Z,100.00
2022-09-14T16:16:38.549Z,100.00
2022-09-14T16:19:06.955Z,100.00
2022-09-14T16:21:34.568Z,100.00
2022-09-14T16:24:05.025Z,100.00
2022-09-14T16:26:36.636Z,100.00
2022-09-14T16:29:05.660Z,100.00
2022-09-14T16:31:36.435Z,100.00
2022-09-14T16:34:11.713Z,100.00
2022-09-14T16:36:41.402Z,100.00
2022-09-14T16:39:11.839Z,100.00
2022-09-14T16:41:42.192Z,100.00
2022-09-14T16:44:17.370Z,100.00
2022-09-14T16:46:45.319Z,100.00
2022-09-14T16:49:13.392Z,100.00
2022-09-14T16:51:41.096Z,100.00
2022-09-14T16:54:09.268Z,100.00
2022-09-14T16:56:38.949Z,100.00
2022-09-14T16:59:08.437Z,100.00
2022-09-14T17:01:39.400Z,100.00
2022-09-14T17:04:11.527Z,100.00
2022-09-14T17:06:42.026Z,100.00
2022-09-14T17:09:11.175Z,100.00
2022-09-14T17:11:40.572Z,100.00
2022-09-14T17:14:14.012Z,100.00
2022-09-14T17:16:41.700Z,100.00
2022-09-14T17:19:09.548Z,100.00
2022-09-14T17:21:38.838Z,100.00
2022-09-14T17:24:07.907Z,100.00
2022-09-14T17:26:36.423Z,100.00
2022-09-14T17:29:05.439Z,100.00
2022-09-14T17:31:36.801Z,100.00
2022-09-14T17:34:06.450Z,100.00
2022-09-14T17:36:34.209Z,100.00
2022-09-14T17:39:06.791Z,100.00
2022-09-14T17:41:38.526Z,100.00
2022-09-14T17:44:07.608Z,100.00
2022-09-14T17:46:44.432Z,100.00
2022-09-14T17:49:16.197Z,100.00
2022-09-14T17:51:45.124Z,100.00
2022-09-14T17:54:13.345Z,100.00
2022-09-14T17:56:41.187Z,100.00
2022-09-14T17:59:12.093Z,100.00
2022-09-14T18:01:41.749Z,100.00
2022-09-14T18:04:11.998Z,100.00
2022-09-14T18:06:42.206Z,100.00
2022-09-14T18:09:13.241Z,100.00
2022-09-14T18:11:41.342Z,100.00
2022-09-14T18:14:12.589Z,100.00
2022-09-14T18:16:42.246Z,100.00
2022-09-14T18:19:10.405Z,100.00
2022-09-14T18:21:38.130Z,100.00
2022-09-14T18:24:06.590Z,100.00
2022-09-14T18:26:34.362Z,100.00
2022-09-14T18:29:03.587Z,100.00
2022-09-14T23:01:42.230Z,100.00
2022-09-14T23:04:12.385Z,100.00
2022-09-14T23:06:42.200Z,100.00
2022-09-14T23:09:12.764Z,100.00
2022-09-14T23:11:42.141Z,100.00
2022-09-14T23:14:09.858Z,100.00
2022-09-14T23:16:39.084Z,100.00
2022-09-14T23:19:07.787Z,100.00
2022-09-14T23:21:35.904Z,100.00
2022-09-14T23:24:10.995Z,100.00
2022-09-14T23:26:39.196Z,100.00
2022-09-14T23:29:09.578Z,100.00
2022-09-14T23:31:37.381Z,100.00
2022-09-14T23:34:07.209Z,100.00
2022-09-14T23:36:35.411Z,100.00
2022-09-14T23:39:03.291Z,100.00
2022-09-14T23:41:31.403Z,100.00
2022-09-14T23:43:59.108Z,100.00
2022-09-14T23:46:27.088Z,100.00
2022-09-14T23:48:54.930Z,100.00
2022-09-14T23:51:24.533Z,100.00
2022-09-14T23:53:52.311Z,100.00
2022-09-14T23:56:20.055Z,100.00
2022-09-14T23:58:47.870Z,100.00
